ENML/MOL METAR and TAF weather

Enter ICAO airport designator
Station Type Date Time Source
ENML METAR 2018/07/19 06:50 UTC NOAA

ENML 190650Z VRB02KT 9999 FEW012 SCT045 BKN070 16/09 Q1019


Station Type Date Time Source
ENML Decoded METAR 2018/07/19 06:50 UTC NOAA

Molde / Aro, Norway (ENML) 62-45N 007-16E 3M
Jul 19, 2018 - 02:50 AM EDT / 2018.07.19 0650 UTC
Wind: Variable at 2 MPH (2 KT):0
Visibility: greater than 7 mile(s):0
Sky conditions: mostly cloudy
Temperature: 60 F (16 C)
Dew Point: 48 F (9 C)
Relative Humidity: 63%
Pressure (altimeter): 30.09 in. Hg (1019 hPa)
ob: ENML 190650Z VRB02KT 9999 FEW012 SCT045 BKN070 16/09 Q1019
cycle: 7

Station Type Date Time Source
ENML TAF UTC NOAA

Error!


Example: see airport list